sensor_id;sensor_type;location;lat;lon;timestamp;pressure;altitude;pressure_sealevel;temperature
18474;BMP180;30265;52.408;13.500;2023-04-16T00:01:08;101777.00;;;15.60
18474;BMP180;30265;52.408;13.500;2023-04-16T00:11:30;101783.00;;;15.60
18474;BMP180;30265;52.408;13.500;2023-04-16T00:21:53;101783.00;;;15.60
18474;BMP180;30265;52.408;13.500;2023-04-16T00:32:14;101788.00;;;15.50
18474;BMP180;30265;52.408;13.500;2023-04-16T00:42:38;101792.00;;;15.40
18474;BMP180;30265;52.408;13.500;2023-04-16T00:53:00;101791.00;;;15.50
18474;BMP180;30265;52.408;13.500;2023-04-16T01:03:33;101797.00;;;15.40
18474;BMP180;30265;52.408;13.500;2023-04-16T01:13:55;101797.00;;;15.50
18474;BMP180;30265;52.408;13.500;2023-04-16T01:24:23;101803.00;;;15.40
18474;BMP180;30265;52.408;13.500;2023-04-16T01:34:45;101808.00;;;15.40
18474;BMP180;30265;52.408;13.500;2023-04-16T01:45:11;101817.00;;;15.50
18474;BMP180;30265;52.408;13.500;2023-04-16T01:55:33;101819.00;;;15.50
18474;BMP180;30265;52.408;13.500;2023-04-16T02:05:56;101819.00;;;15.50
18474;BMP180;30265;52.408;13.500;2023-04-16T02:16:21;101816.00;;;15.50
18474;BMP180;30265;52.408;13.500;2023-04-16T02:26:54;101832.00;;;15.50
18474;BMP180;30265;52.408;13.500;2023-04-16T02:37:20;101841.00;;;15.60
18474;BMP180;30265;52.408;13.500;2023-04-16T02:47:44;101837.00;;;15.60
18474;BMP180;30265;52.408;13.500;2023-04-16T02:58:07;101841.00;;;15.60
18474;BMP180;30265;52.408;13.500;2023-04-16T03:08:31;101837.00;;;15.50
18474;BMP180;30265;52.408;13.500;2023-04-16T03:18:54;101852.00;;;15.50
18474;BMP180;30265;52.408;13.500;2023-04-16T03:29:19;101864.00;;;15.40
18474;BMP180;30265;52.408;13.500;2023-04-16T03:39:41;101870.00;;;15.50
18474;BMP180;30265;52.408;13.500;2023-04-16T03:50:06;101875.00;;;15.30
18474;BMP180;30265;52.408;13.500;2023-04-16T04:00:28;101892.00;;;15.10
18474;BMP180;30265;52.408;13.500;2023-04-16T04:11:07;101908.00;;;15.10
18474;BMP180;30265;52.408;13.500;2023-04-16T04:21:31;101928.00;;;15.10
18474;BMP180;30265;52.408;13.500;2023-04-16T04:31:59;101924.00;;;14.90
18474;BMP180;30265;52.408;13.500;2023-04-16T04:42:21;101928.00;;;14.90
18474;BMP180;30265;52.408;13.500;2023-04-16T04:52:45;101936.00;;;15.00
18474;BMP180;30265;52.408;13.500;2023-04-16T05:03:12;101939.00;;;15.00
18474;BMP180;30265;52.408;13.500;2023-04-16T05:13:35;101949.00;;;14.90
18474;BMP180;30265;52.408;13.500;2023-04-16T05:23:59;101973.00;;;14.90
18474;BMP180;30265;52.408;13.500;2023-04-16T05:34:22;101980.00;;;15.00
18474;BMP180;30265;52.408;13.500;2023-04-16T05:44:44;101984.00;;;15.00
18474;BMP180;30265;52.408;13.500;2023-04-16T05:55:08;101998.00;;;14.90
18474;BMP180;30265;52.408;13.500;2023-04-16T06:05:34;101994.00;;;15.00
18474;BMP180;30265;52.408;13.500;2023-04-16T06:15:57;102008.00;;;15.10
18474;BMP180;30265;52.408;13.500;2023-04-16T06:26:19;102017.00;;;15.00
18474;BMP180;30265;52.408;13.500;2023-04-16T06:36:44;102027.00;;;15.00
18474;BMP180;30265;52.408;13.500;2023-04-16T06:47:10;102028.00;;;15.00
18474;BMP180;30265;52.408;13.500;2023-04-16T06:57:33;102021.00;;;15.30
18474;BMP180;30265;52.408;13.500;2023-04-16T07:07:57;102028.00;;;15.30
18474;BMP180;30265;52.408;13.500;2023-04-16T07:18:21;102046.00;;;15.30
18474;BMP180;30265;52.408;13.500;2023-04-16T07:28:42;102052.00;;;15.20
18474;BMP180;30265;52.408;13.500;2023-04-16T07:39:07;102062.00;;;15.50
18474;BMP180;30265;52.408;13.500;2023-04-16T07:49:40;102070.00;;;15.40
18474;BMP180;30265;52.408;13.500;2023-04-16T08:00:06;102072.00;;;15.60
18474;BMP180;30265;52.408;13.500;2023-04-16T08:10:35;102077.00;;;15.60
18474;BMP180;30265;52.408;13.500;2023-04-16T08:21:10;102092.00;;;15.60
18474;BMP180;30265;52.408;13.500;2023-04-16T08:31:32;102098.00;;;15.40
18474;BMP180;30265;52.408;13.500;2023-04-16T08:42:01;102117.00;;;15.50
18474;BMP180;30265;52.408;13.500;2023-04-16T08:52:37;102130.00;;;15.50
18474;BMP180;30265;52.408;13.500;2023-04-16T09:03:10;102131.00;;;15.70
18474;BMP180;30265;52.408;13.500;2023-04-16T09:13:33;102143.00;;;15.60
18474;BMP180;30265;52.408;13.500;2023-04-16T09:23:57;102157.00;;;15.50
18474;BMP180;30265;52.408;13.500;2023-04-16T09:34:20;102156.00;;;15.40
18474;BMP180;30265;52.408;13.500;2023-04-16T09:44:43;102174.00;;;15.90
18474;BMP180;30265;52.408;13.500;2023-04-16T09:55:07;102161.00;;;16.20
18474;BMP180;30265;52.408;13.500;2023-04-16T10:05:35;102173.00;;;16.20
18474;BMP180;30265;52.408;13.500;2023-04-16T10:15:57;102152.00;;;16.60
18474;BMP180;30265;52.408;13.500;2023-04-16T10:26:21;102170.00;;;16.60
18474;BMP180;30265;52.408;13.500;2023-04-16T10:36:47;102171.00;;;16.30
18474;BMP180;30265;52.408;13.500;2023-04-16T10:47:14;102186.00;;;16.40
18474;BMP180;30265;52.408;13.500;2023-04-16T10:57:38;102191.00;;;16.10
18474;BMP180;30265;52.408;13.500;2023-04-16T11:08:12;102196.00;;;16.40
18474;BMP180;30265;52.408;13.500;2023-04-16T11:18:35;102194.00;;;16.50
18474;BMP180;30265;52.408;13.500;2023-04-16T11:29:12;102196.00;;;16.60
18474;BMP180;30265;52.408;13.500;2023-04-16T11:39:46;102208.00;;;16.60
18474;BMP180;30265;52.408;13.500;2023-04-16T11:50:19;102210.00;;;16.50
18474;BMP180;30265;52.408;13.500;2023-04-16T12:00:43;102215.00;;;16.80
18474;BMP180;30265;52.408;13.500;2023-04-16T12:11:07;102211.00;;;17.00
18474;BMP180;30265;52.408;13.500;2023-04-16T12:21:37;102213.00;;;17.10
18474;BMP180;30265;52.408;13.500;2023-04-16T12:32:03;102223.00;;;17.00
18474;BMP180;30265;52.408;13.500;2023-04-16T12:42:26;102241.00;;;16.70
18474;BMP180;30265;52.408;13.500;2023-04-16T12:52:56;102240.00;;;16.50
18474;BMP180;30265;52.408;13.500;2023-04-16T13:03:18;102248.00;;;16.50
18474;BMP180;30265;52.408;13.500;2023-04-16T13:13:45;102263.00;;;16.40
18474;BMP180;30265;52.408;13.500;2023-04-16T13:24:09;102279.00;;;16.00
18474;BMP180;30265;52.408;13.500;2023-04-16T13:34:32;102280.00;;;15.90
18474;BMP180;30265;52.408;13.500;2023-04-16T13:44:54;102280.00;;;15.90
18474;BMP180;30265;52.408;13.500;2023-04-16T13:55:19;102275.00;;;16.00
18474;BMP180;30265;52.408;13.500;2023-04-16T14:05:43;102268.00;;;16.10
18474;BMP180;30265;52.408;13.500;2023-04-16T14:16:07;102274.00;;;16.30
18474;BMP180;30265;52.408;13.500;2023-04-16T14:26:30;102279.00;;;16.20
18474;BMP180;30265;52.408;13.500;2023-04-16T14:36:53;102268.00;;;16.60
18474;BMP180;30265;52.408;13.500;2023-04-16T14:47:15;102270.00;;;16.60
18474;BMP180;30265;52.408;13.500;2023-04-16T14:57:39;102268.00;;;16.50
18474;BMP180;30265;52.408;13.500;2023-04-16T15:08:01;102296.00;;;16.50
18474;BMP180;30265;52.408;13.500;2023-04-16T15:18:24;102294.00;;;16.10
18474;BMP180;30265;52.408;13.500;2023-04-16T15:28:47;102312.00;;;16.00
18474;BMP180;30265;52.408;13.500;2023-04-16T15:39:11;102311.00;;;15.90
18474;BMP180;30265;52.408;13.500;2023-04-16T15:49:33;102321.00;;;16.00
18474;BMP180;30265;52.408;13.500;2023-04-16T15:59:57;102324.00;;;15.90
18474;BMP180;30265;52.408;13.500;2023-04-16T16:10:26;102332.00;;;16.00
18474;BMP180;30265;52.408;13.500;2023-04-16T16:20:55;102340.00;;;16.00
18474;BMP180;30265;52.408;13.500;2023-04-16T16:31:17;102345.00;;;15.80
18474;BMP180;30265;52.408;13.500;2023-04-16T16:41:40;102346.00;;;15.90
18474;BMP180;30265;52.408;13.500;2023-04-16T16:52:02;102357.00;;;15.80
18474;BMP180;30265;52.408;13.500;2023-04-16T17:02:32;102360.00;;;15.70
18474;BMP180;30265;52.408;13.500;2023-04-16T17:12:54;102378.00;;;15.70
18474;BMP180;30265;52.408;13.500;2023-04-16T17:23:20;102376.00;;;15.50
18474;BMP180;30265;52.408;13.500;2023-04-16T17:33:45;102401.00;;;15.40
18474;BMP180;30265;52.408;13.500;2023-04-16T17:44:09;102412.00;;;15.20
18474;BMP180;30265;52.408;13.500;2023-04-16T17:54:31;102427.00;;;15.10
18474;BMP180;30265;52.408;13.500;2023-04-16T18:04:57;102436.00;;;15.00
18474;BMP180;30265;52.408;13.500;2023-04-16T18:15:19;102454.00;;;15.00
18474;BMP180;30265;52.408;13.500;2023-04-16T18:25:44;102465.00;;;15.00
18474;BMP180;30265;52.408;13.500;2023-04-16T18:36:08;102471.00;;;14.90
18474;BMP180;30265;52.408;13.500;2023-04-16T18:46:32;102495.00;;;14.80
18474;BMP180;30265;52.408;13.500;2023-04-16T18:56:54;102505.00;;;14.70
18474;BMP180;30265;52.408;13.500;2023-04-16T19:07:19;102498.00;;;14.70
18474;BMP180;30265;52.408;13.500;2023-04-16T19:17:40;102509.00;;;14.70
18474;BMP180;30265;52.408;13.500;2023-04-16T19:28:04;102507.00;;;14.70
18474;BMP180;30265;52.408;13.500;2023-04-16T19:38:26;102507.00;;;14.60
18474;BMP180;30265;52.408;13.500;2023-04-16T19:48:49;102521.00;;;14.60
18474;BMP180;30265;52.408;13.500;2023-04-16T19:59:10;102522.00;;;14.60
18474;BMP180;30265;52.408;13.500;2023-04-16T20:09:34;102529.00;;;14.60
18474;BMP180;30265;52.408;13.500;2023-04-16T20:19:55;102536.00;;;14.50
18474;BMP180;30265;52.408;13.500;2023-04-16T20:30:21;102528.00;;;14.60
18474;BMP180;30265;52.408;13.500;2023-04-16T20:40:48;102542.00;;;14.40
18474;BMP180;30265;52.408;13.500;2023-04-16T20:51:27;102557.00;;;14.40
18474;BMP180;30265;52.408;13.500;2023-04-16T21:01:48;102557.00;;;14.20
18474;BMP180;30265;52.408;13.500;2023-04-16T21:12:12;102565.00;;;14.10
18474;BMP180;30265;52.408;13.500;2023-04-16T21:22:34;102575.00;;;14.10
18474;BMP180;30265;52.408;13.500;2023-04-16T21:32:57;102562.00;;;14.00
18474;BMP180;30265;52.408;13.500;2023-04-16T21:43:19;102561.00;;;13.90
18474;BMP180;30265;52.408;13.500;2023-04-16T21:53:42;102568.00;;;13.80
18474;BMP180;30265;52.408;13.500;2023-04-16T22:04:04;102566.00;;;13.80
18474;BMP180;30265;52.408;13.500;2023-04-16T22:14:28;102571.00;;;13.80
18474;BMP180;30265;52.408;13.500;2023-04-16T22:24:51;102575.00;;;13.70
18474;BMP180;30265;52.408;13.500;2023-04-16T22:35:14;102588.00;;;13.70
18474;BMP180;30265;52.408;13.500;2023-04-16T22:45:35;102594.00;;;13.70
18474;BMP180;30265;52.408;13.500;2023-04-16T22:55:59;102582.00;;;13.70
18474;BMP180;30265;52.408;13.500;2023-04-16T23:06:21;102586.00;;;13.60
18474;BMP180;30265;52.408;13.500;2023-04-16T23:16:44;102586.00;;;13.60
18474;BMP180;30265;52.408;13.500;2023-04-16T23:27:05;102591.00;;;13.60
18474;BMP180;30265;52.408;13.500;2023-04-16T23:37:29;102589.00;;;13.50
18474;BMP180;30265;52.408;13.500;2023-04-16T23:47:50;102578.00;;;13.50
18474;BMP180;30265;52.408;13.500;2023-04-16T23:58:13;102576.00;;;13.40
